createdAt,value
2019-04-03T00:00:43.537Z,3.63
2019-04-03T00:03:12.010Z,2.67
2019-04-03T00:05:40.510Z,2.73
2019-04-03T00:08:08.978Z,6.27
2019-04-03T00:10:38.212Z,3.33
2019-04-03T00:13:06.841Z,3.00
2019-04-03T00:15:35.348Z,3.40
2019-04-03T00:18:03.808Z,3.43
2019-04-03T00:20:32.301Z,4.00
2019-04-03T00:23:00.772Z,2.30
2019-04-03T00:25:29.282Z,3.20
2019-04-03T00:27:57.745Z,2.30
2019-04-03T00:30:26.251Z,2.47
2019-04-03T00:32:54.764Z,3.63
2019-04-03T00:35:23.954Z,2.03
2019-04-03T00:37:53.619Z,4.07
2019-04-03T00:40:24.022Z,2.20
2019-04-03T00:42:54.100Z,4.60
2019-04-03T00:45:24.519Z,2.00
2019-04-03T00:47:55.294Z,3.17
2019-04-03T00:50:22.942Z,2.17
2019-04-03T00:52:51.485Z,2.60
2019-04-03T00:55:19.978Z,2.30
2019-04-03T00:57:48.451Z,2.57
2019-04-03T01:00:17.406Z,2.40
2019-04-03T01:02:45.850Z,2.97
2019-04-03T01:05:14.519Z,7.07
2019-04-03T01:07:43.068Z,4.20
2019-04-03T01:10:11.674Z,3.27
2019-04-03T01:12:40.207Z,1.80
2019-04-03T01:15:08.833Z,1.80
2019-04-03T01:17:37.300Z,2.37
2019-04-03T01:20:06.943Z,2.17
2019-04-03T01:22:36.910Z,1.47
2019-04-03T01:25:08.256Z,2.47
2019-04-03T01:27:36.523Z,2.00
2019-04-03T01:30:07.123Z,3.43
2019-04-03T01:32:35.627Z,2.33
2019-04-03T01:35:04.718Z,3.07
2019-04-03T01:37:33.279Z,4.00
2019-04-03T01:40:01.676Z,7.27
2019-04-03T01:42:30.378Z,3.47
2019-04-03T01:44:58.844Z,2.73
2019-04-03T01:47:27.775Z,2.10
2019-04-03T01:49:56.840Z,2.37
2019-04-03T01:52:26.966Z,2.83
2019-04-03T01:54:55.506Z,1.70
2019-04-03T01:57:24.027Z,2.67
2019-04-03T01:59:52.465Z,2.80
2019-04-03T02:02:20.975Z,2.53
2019-04-03T02:04:49.437Z,7.80
2019-04-03T02:07:17.932Z,2.50
2019-04-03T02:09:47.027Z,4.20
2019-04-03T02:12:15.695Z,1.90
2019-04-03T02:14:44.286Z,3.75
2019-04-03T02:17:12.844Z,1.90
2019-04-03T02:19:41.451Z,1.60
2019-04-03T02:22:10.029Z,2.53
2019-04-03T02:24:38.477Z,2.03
2019-04-03T02:27:06.971Z,2.73
2019-04-03T02:29:35.449Z,2.23
2019-04-03T02:32:04.020Z,1.90
2019-04-03T02:34:34.679Z,2.40
2019-04-03T02:37:02.645Z,4.83
2019-04-03T02:39:31.132Z,2.50
2019-04-03T02:41:59.606Z,3.13
2019-04-03T02:44:28.127Z,2.58
2019-04-03T02:46:59.458Z,3.53
2019-04-03T02:49:26.774Z,2.75
2019-04-03T02:51:55.598Z,2.40
2019-04-03T02:54:34.789Z,3.00
2019-04-03T02:57:01.457Z,2.15
2019-04-03T02:59:29.903Z,2.30
2019-04-03T03:01:58.597Z,3.20
2019-04-03T03:04:27.146Z,2.30
2019-04-03T03:06:55.979Z,2.83
2019-04-03T03:09:24.483Z,3.05
2019-04-03T03:11:56.074Z,7.43
2019-04-03T03:14:23.537Z,5.58
2019-04-03T03:16:52.274Z,3.52
2019-04-03T03:19:22.359Z,3.30
2019-04-03T03:21:51.207Z,3.07
2019-04-03T03:24:19.829Z,4.28
2019-04-03T03:26:48.482Z,3.73
2019-04-03T03:29:19.830Z,3.40
2019-04-03T03:32:05.409Z,2.98
2019-04-03T03:34:42.917Z,3.42
2019-04-03T03:36:47.988Z,3.23
2019-04-03T03:39:16.675Z,3.52
2019-04-03T03:41:45.209Z,2.70
2019-04-03T03:44:13.782Z,3.55
2019-04-03T03:46:42.347Z,3.47
2019-04-03T03:49:10.895Z,4.70
2019-04-03T03:51:39.498Z,4.47
2019-04-03T03:54:08.024Z,3.13
2019-04-03T03:56:36.758Z,3.60
2019-04-03T03:59:05.338Z,2.70
2019-04-03T04:01:34.267Z,2.90
2019-04-03T04:04:03.220Z,3.90
2019-04-03T04:06:35.187Z,2.90
2019-04-03T04:09:02.301Z,3.17
2019-04-03T04:11:32.367Z,2.67
2019-04-03T04:14:01.058Z,3.20
2019-04-03T04:16:29.768Z,3.63
2019-04-03T04:18:58.312Z,3.00
2019-04-03T04:21:27.104Z,4.50
2019-04-03T04:23:56.792Z,3.05
2019-04-03T04:26:26.077Z,2.75
2019-04-03T04:28:54.613Z,3.17
2019-04-03T04:31:23.084Z,4.17
2019-04-03T04:33:51.804Z,3.30
2019-04-03T04:36:20.482Z,3.20
2019-04-03T04:38:50.434Z,4.22
2019-04-03T04:41:18.899Z,3.77
2019-04-03T04:43:47.585Z,3.58
2019-04-03T04:46:16.146Z,3.47
2019-04-03T04:48:44.639Z,3.10
2019-04-03T04:51:13.112Z,3.17
2019-04-03T04:53:41.600Z,2.87
2019-04-03T04:56:10.065Z,2.73
2019-04-03T04:58:38.564Z,3.40
2019-04-03T05:01:07.033Z,3.13
2019-04-03T05:03:35.534Z,4.67
2019-04-03T05:06:03.994Z,4.10
2019-04-03T05:08:33.285Z,5.15
2019-04-03T05:11:02.338Z,3.52
2019-04-03T05:13:31.178Z,4.80
2019-04-03T05:15:59.869Z,3.63
2019-04-03T05:18:29.285Z,8.13
2019-04-03T05:20:58.112Z,3.22
2019-04-03T05:23:26.587Z,3.27
2019-04-03T05:25:55.090Z,6.80
2019-04-03T05:28:24.827Z,4.90
2019-04-03T05:30:53.531Z,3.77
2019-04-03T05:33:22.017Z,6.97
2019-04-03T05:35:50.590Z,3.90
2019-04-03T05:38:21.719Z,3.60
2019-04-03T05:40:49.432Z,3.90
2019-04-03T05:43:18.134Z,5.77
2019-04-03T05:45:46.738Z,3.40
2019-04-03T05:48:17.825Z,3.20
2019-04-03T05:50:45.498Z,3.25
2019-04-03T05:53:13.969Z,2.73
2019-04-03T05:55:42.469Z,3.60
2019-04-03T05:58:11.026Z,3.03
2019-04-03T06:00:39.586Z,5.33
2019-04-03T06:03:08.061Z,3.40
2019-04-03T06:05:36.639Z,3.53
2019-04-03T06:08:05.158Z,4.73
2019-04-03T06:10:36.567Z,5.60
2019-04-03T06:13:05.784Z,7.07
2019-04-03T06:15:33.977Z,6.70
2019-04-03T06:18:02.459Z,5.80
2019-04-03T06:20:30.961Z,3.70
2019-04-03T06:23:00.098Z,3.90
2019-04-03T06:25:30.375Z,3.67
2019-04-03T06:27:59.042Z,4.10
2019-04-03T06:30:27.489Z,4.78
2019-04-03T06:32:55.953Z,5.03
2019-04-03T06:35:24.455Z,4.83
2019-04-03T06:37:53.529Z,4.47
2019-04-03T06:40:22.145Z,9.95
2019-04-03T06:42:50.865Z,4.50
2019-04-03T06:45:19.543Z,3.40
2019-04-03T06:47:48.023Z,4.33
2019-04-03T06:50:17.570Z,17.55
2019-04-03T06:52:46.386Z,7.80
2019-04-03T06:55:15.023Z,5.92
2019-04-03T06:57:43.495Z,4.00
2019-04-03T07:00:12.356Z,4.70
2019-04-03T07:02:40.957Z,3.53
2019-04-03T07:05:10.213Z,5.83
2019-04-03T07:07:39.483Z,6.05
2019-04-03T07:10:09.153Z,6.12
2019-04-03T07:12:38.233Z,4.30
2019-04-03T07:15:07.834Z,6.47
2019-04-03T07:17:36.287Z,4.20
2019-04-03T07:20:13.729Z,4.80
2019-04-03T07:22:36.650Z,4.83
2019-04-03T07:25:06.672Z,6.00
2019-04-03T07:27:37.124Z,4.40
2019-04-03T07:30:07.189Z,5.05
2019-04-03T07:32:35.750Z,5.67
2019-04-03T07:35:08.868Z,3.67
2019-04-03T07:37:35.248Z,4.10
2019-04-03T07:40:08.027Z,8.05
2019-04-03T07:42:36.790Z,6.00
2019-04-03T07:45:06.843Z,6.97
2019-04-03T07:47:35.891Z,4.40
2019-04-03T07:50:07.144Z,5.65
2019-04-03T07:52:35.956Z,5.10
2019-04-03T07:55:05.387Z,6.00
2019-04-03T07:57:34.024Z,4.70
2019-04-03T08:00:06.185Z,9.50
2019-04-03T08:02:34.228Z,5.70
2019-04-03T08:05:04.258Z,4.92
2019-04-03T08:07:32.769Z,6.03
2019-04-03T08:10:01.679Z,6.15
2019-04-03T08:12:30.230Z,4.33
2019-04-03T08:14:59.173Z,4.65
2019-04-03T08:17:28.001Z,6.27
2019-04-03T08:19:56.444Z,6.33
2019-04-03T08:22:24.970Z,7.40
2019-04-03T08:24:53.877Z,5.55
2019-04-03T08:27:23.449Z,7.07
2019-04-03T08:29:53.058Z,5.83
2019-04-03T08:32:21.563Z,5.33
2019-04-03T08:34:50.030Z,5.55
2019-04-03T08:37:28.805Z,5.17
2019-04-03T08:39:49.791Z,5.97
2019-04-03T08:42:18.618Z,6.10
2019-04-03T08:44:47.042Z,6.40
2019-04-03T08:47:15.552Z,11.80
2019-04-03T08:49:44.320Z,13.25
2019-04-03T08:52:14.809Z,7.53
2019-04-03T08:54:42.948Z,7.37
2019-04-03T08:57:11.489Z,6.70
2019-04-03T08:59:40.184Z,5.55
2019-04-03T09:02:12.213Z,7.90
2019-04-03T09:04:39.025Z,5.37
2019-04-03T09:07:07.672Z,6.53
2019-04-03T09:09:36.350Z,8.73
2019-04-03T09:12:06.868Z,5.53
2019-04-03T09:14:35.111Z,6.20
2019-04-03T09:17:03.686Z,5.90
2019-04-03T09:19:32.144Z,5.20
2019-04-03T09:22:00.643Z,5.23
2019-04-03T09:24:29.751Z,5.00
2019-04-03T09:26:58.632Z,5.20
2019-04-03T09:29:27.368Z,4.78
2019-04-03T09:31:56.638Z,5.08
2019-04-03T09:34:25.235Z,4.12
2019-04-03T09:36:53.714Z,5.20
2019-04-03T09:39:22.223Z,5.37
2019-04-03T09:41:51.815Z,3.23
2019-04-03T09:44:20.318Z,3.93
2019-04-03T09:46:48.790Z,3.10
2019-04-03T09:49:17.701Z,3.75
2019-04-03T09:51:46.183Z,3.03
2019-04-03T09:54:14.768Z,2.93
2019-04-03T09:56:56.392Z,4.10
2019-04-03T09:59:15.481Z,3.57
2019-04-03T10:01:43.505Z,4.50
2019-04-03T10:04:12.307Z,3.60
2019-04-03T10:06:40.720Z,3.60
2019-04-03T10:09:11.749Z,3.73
2019-04-03T10:11:39.770Z,5.43
2019-04-03T10:14:08.426Z,4.37
2019-04-03T10:16:36.898Z,3.43
2019-04-03T10:19:05.389Z,3.60
2019-04-03T10:21:34.191Z,3.73
2019-04-03T10:24:03.100Z,4.03
2019-04-03T10:26:31.882Z,2.43
2019-04-03T10:29:00.479Z,3.33
2019-04-03T10:31:29.289Z,3.50
2019-04-03T10:33:57.793Z,3.67
2019-04-03T10:36:26.394Z,3.30
2019-04-03T10:38:54.886Z,3.97
2019-04-03T10:41:23.425Z,3.03
2019-04-03T10:43:52.243Z,3.20
2019-04-03T10:46:21.089Z,2.90
2019-04-03T10:48:49.586Z,2.63
2019-04-03T10:51:18.339Z,3.10
2019-04-03T10:53:47.122Z,2.83
2019-04-03T10:56:15.574Z,2.53
2019-04-03T10:58:44.339Z,3.00
2019-04-03T11:01:12.841Z,3.87
2019-04-03T11:03:41.342Z,3.20
2019-04-03T11:06:09.904Z,2.83
2019-04-03T11:08:38.396Z,3.90
2019-04-03T11:11:06.943Z,2.63
2019-04-03T11:13:35.662Z,2.70
2019-04-03T11:16:04.361Z,2.73
2019-04-03T11:18:32.840Z,2.57
2019-04-03T11:21:01.338Z,3.00
2019-04-03T11:23:38.671Z,3.83
2019-04-03T11:25:59.941Z,2.97
2019-04-03T11:28:28.445Z,3.53
2019-04-03T11:31:01.112Z,2.95
2019-04-03T11:33:27.011Z,2.60
2019-04-03T11:35:55.507Z,3.60
2019-04-03T11:38:28.003Z,3.50
2019-04-03T11:40:54.166Z,3.40
2019-04-03T11:43:22.996Z,4.37
2019-04-03T11:45:51.500Z,3.37
2019-04-03T11:48:20.247Z,3.30
2019-04-03T11:50:48.942Z,3.33
2019-04-03T11:53:17.329Z,4.70
2019-04-03T11:55:45.993Z,4.20
2019-04-03T11:58:14.673Z,6.50
2019-04-03T12:00:45.424Z,4.20
2019-04-03T12:03:13.964Z,5.83
2019-04-03T12:05:42.745Z,3.63
2019-04-03T12:08:12.546Z,4.30
2019-04-03T12:10:41.739Z,4.40
2019-04-03T12:13:12.475Z,4.50
2019-04-03T12:15:40.329Z,4.90
2019-04-03T12:18:08.873Z,4.10
2019-04-03T12:20:42.575Z,3.57
2019-04-03T12:23:07.551Z,4.17
2019-04-03T12:25:38.277Z,3.20
2019-04-03T12:28:07.047Z,3.22
2019-04-03T12:30:36.043Z,3.60
2019-04-03T12:33:04.736Z,3.42
2019-04-03T12:35:33.323Z,3.70
2019-04-03T12:38:01.799Z,3.50
2019-04-03T12:40:32.352Z,3.97
2019-04-03T12:43:00.417Z,4.22
2019-04-03T12:45:28.944Z,4.07
2019-04-03T12:47:57.739Z,3.67
2019-04-03T12:50:28.101Z,3.23
2019-04-03T12:52:57.159Z,4.22
2019-04-03T12:55:26.343Z,7.53
2019-04-03T12:57:55.323Z,4.10
2019-04-03T13:00:24.095Z,3.75
2019-04-03T13:02:53.042Z,3.85
2019-04-03T13:05:22.260Z,4.00
2019-04-03T13:07:51.116Z,4.90
2019-04-03T13:10:20.050Z,5.67
2019-04-03T13:12:48.591Z,3.77
2019-04-03T13:15:17.298Z,4.90
2019-04-03T13:17:45.879Z,3.80
2019-04-03T13:20:14.788Z,4.20
2019-04-03T13:22:43.762Z,3.62
2019-04-03T13:25:12.394Z,3.70
2019-04-03T13:27:40.944Z,3.30
2019-04-03T13:30:11.930Z,3.57
2019-04-03T13:32:40.850Z,3.35
2019-04-03T13:35:09.724Z,2.87
2019-04-03T13:37:38.181Z,4.90
2019-04-03T13:40:07.520Z,4.47
2019-04-03T13:42:36.521Z,4.40
2019-04-03T13:45:11.545Z,4.87
2019-04-03T13:47:41.902Z,4.12
2019-04-03T13:50:10.747Z,3.63
2019-04-03T13:52:43.087Z,4.45
2019-04-03T13:55:09.762Z,4.20
2019-04-03T13:57:38.622Z,3.72
2019-04-03T14:00:19.148Z,3.40
2019-04-03T14:02:37.774Z,3.80
2019-04-03T14:05:09.154Z,3.67
2019-04-03T14:07:40.310Z,3.22
2019-04-03T14:10:09.136Z,3.20
2019-04-03T14:12:41.250Z,2.35
2019-04-03T14:15:08.536Z,3.52
2019-04-03T14:17:37.230Z,3.10
2019-04-03T14:20:09.939Z,2.93
2019-04-03T14:22:38.475Z,3.15
2019-04-03T14:25:18.071Z,2.55
2019-04-03T14:27:37.656Z,3.37
2019-04-03T14:30:11.086Z,3.70
2019-04-03T14:32:39.338Z,3.70
2019-04-03T14:35:38.289Z,3.72
2019-04-03T14:37:38.716Z,3.22
2019-04-03T14:40:11.073Z,3.20
2019-04-03T14:42:37.691Z,3.25
2019-04-03T14:45:07.109Z,3.10
2019-04-03T14:47:35.605Z,3.30
2019-04-03T14:50:06.303Z,3.30
2019-04-03T14:52:35.423Z,3.58
2019-04-03T14:55:16.467Z,2.98
2019-04-03T14:57:35.905Z,4.55
2019-04-03T15:00:23.927Z,4.87
2019-04-03T15:02:35.909Z,4.05
2019-04-03T15:05:07.428Z,5.50
2019-04-03T15:07:36.528Z,3.98
2019-04-03T15:10:06.765Z,4.78
2019-04-03T15:12:38.647Z,7.17
2019-04-03T15:15:07.309Z,6.00
2019-04-03T15:17:37.620Z,7.03
2019-04-03T15:20:10.942Z,6.20
2019-04-03T15:22:39.573Z,4.50
2019-04-03T15:25:08.815Z,6.30
2019-04-03T15:27:37.529Z,3.20
2019-04-03T15:30:10.026Z,4.77
2019-04-03T15:32:37.704Z,2.30
2019-04-03T15:35:06.753Z,1.67
2019-04-03T15:37:35.219Z,1.30
2019-04-03T15:40:04.780Z,1.67
2019-04-03T15:42:33.534Z,1.65
2019-04-03T15:45:02.344Z,1.30
2019-04-03T15:47:37.043Z,1.27
2019-04-03T15:50:01.106Z,2.40
2019-04-03T15:52:29.570Z,1.87
2019-04-03T15:54:58.455Z,1.40
2019-04-03T15:57:26.924Z,7.77
2019-04-03T15:59:55.416Z,1.90
2019-04-03T16:02:23.945Z,1.50
2019-04-03T16:04:52.691Z,1.20
2019-04-03T16:07:21.637Z,1.90
2019-04-03T16:09:51.273Z,1.37
2019-04-03T16:12:20.080Z,1.10
2019-04-03T16:14:48.783Z,1.37
2019-04-03T16:17:18.924Z,1.33
2019-04-03T16:19:47.464Z,1.40
2019-04-03T16:22:16.223Z,1.30
2019-04-03T16:24:45.135Z,1.20
2019-04-03T16:27:13.921Z,1.47
2019-04-03T16:29:42.594Z,1.17
2019-04-03T16:32:11.516Z,1.00
2019-04-03T16:34:41.698Z,2.80
2019-04-03T16:37:10.597Z,2.03
2019-04-03T16:39:39.212Z,2.70
2019-04-03T16:42:07.620Z,1.60
2019-04-03T16:44:36.128Z,1.17
2019-04-03T16:47:05.006Z,1.70
2019-04-03T16:49:33.607Z,1.00
2019-04-03T16:52:04.853Z,1.80
2019-04-03T16:54:33.603Z,1.57
2019-04-03T16:57:03.579Z,1.93
2019-04-03T16:59:35.250Z,1.00
2019-04-03T17:02:02.411Z,1.37
2019-04-03T17:04:31.103Z,1.80
2019-04-03T17:06:59.580Z,1.20
2019-04-03T17:09:28.072Z,1.60
2019-04-03T17:11:56.601Z,1.00
2019-04-03T17:14:25.706Z,1.65
2019-04-03T17:16:54.224Z,1.35
2019-04-03T17:19:22.713Z,1.85
2019-04-03T17:21:51.457Z,0.82
2019-04-03T17:24:20.082Z,1.20
2019-04-03T17:26:53.446Z,1.30
2019-04-03T17:29:18.796Z,0.95
2019-04-03T17:31:47.249Z,0.97
2019-04-03T17:34:15.863Z,0.90
2019-04-03T17:36:44.376Z,1.22
2019-04-03T17:39:12.833Z,1.70
2019-04-03T17:41:41.323Z,3.00
2019-04-03T17:44:09.791Z,2.47
2019-04-03T17:46:40.054Z,2.17
2019-04-03T17:49:08.390Z,2.42
2019-04-03T17:51:36.887Z,2.40
2019-04-03T17:54:07.554Z,2.47
2019-04-03T17:56:35.863Z,1.90
2019-04-03T17:59:04.393Z,1.42
2019-04-03T18:01:32.954Z,1.50
2019-04-03T18:04:01.511Z,1.30
2019-04-03T18:06:29.976Z,1.50
2019-04-03T18:08:58.430Z,1.47
2019-04-03T18:11:26.928Z,2.00
2019-04-03T18:13:55.642Z,1.70
2019-04-03T18:16:24.137Z,1.50
2019-04-03T18:18:52.602Z,1.90
2019-04-03T18:21:21.088Z,2.37
2019-04-03T18:23:52.667Z,3.08
2019-04-03T18:26:19.686Z,1.83
2019-04-03T18:28:48.150Z,1.52
2019-04-03T18:31:16.652Z,2.93
2019-04-03T18:33:45.116Z,4.08
2019-04-03T18:36:13.599Z,2.35
2019-04-03T18:38:42.069Z,3.47
2019-04-03T18:41:10.561Z,2.47
2019-04-03T18:43:39.030Z,2.50
2019-04-03T18:46:07.612Z,2.93
2019-04-03T18:48:36.066Z,2.70
2019-04-03T18:51:06.445Z,1.67
2019-04-03T18:53:34.749Z,2.65
2019-04-03T18:56:03.242Z,2.02
2019-04-03T18:58:31.707Z,2.22
2019-04-03T19:01:01.773Z,1.50
2019-04-03T19:03:30.367Z,2.00
2019-04-03T19:05:59.960Z,2.00
2019-04-03T19:08:28.525Z,2.12
2019-04-03T19:11:02.248Z,2.40
2019-04-03T19:13:27.134Z,1.72
2019-04-03T19:15:55.630Z,1.97
2019-04-03T19:18:24.095Z,2.65
2019-04-03T19:20:52.707Z,2.53
2019-04-03T19:23:21.258Z,2.50
2019-04-03T19:25:49.775Z,2.60
2019-04-03T19:28:18.237Z,2.50
2019-04-03T19:30:47.052Z,2.77
2019-04-03T19:33:15.611Z,3.60
2019-04-03T19:35:44.066Z,3.37
2019-04-03T19:38:13.367Z,3.72
2019-04-03T19:40:41.927Z,3.80
2019-04-03T19:43:10.429Z,3.72
2019-04-03T19:45:38.883Z,5.10
2019-04-03T19:48:07.369Z,3.60
2019-04-03T19:50:35.841Z,3.67
2019-04-03T19:53:04.334Z,7.92
2019-04-03T19:55:32.789Z,4.90
2019-04-03T19:58:01.278Z,4.35
2019-04-03T20:00:29.737Z,2.50
2019-04-03T20:02:58.230Z,2.50
2019-04-03T20:05:26.693Z,2.10
2019-04-03T20:07:55.189Z,2.10
2019-04-03T20:10:23.645Z,2.13
2019-04-03T20:12:52.191Z,3.65
2019-04-03T20:15:22.360Z,1.80
2019-04-03T20:17:50.919Z,1.82
2019-04-03T20:20:19.393Z,2.40
2019-04-03T20:22:47.875Z,1.95
2019-04-03T20:25:16.330Z,1.10
2019-04-03T20:27:47.227Z,1.60
2019-04-03T20:30:15.166Z,1.47
2019-04-03T20:32:43.674Z,1.95
2019-04-03T20:35:12.146Z,1.63
2019-04-03T20:37:40.635Z,2.10
2019-04-03T20:40:09.174Z,1.27
2019-04-03T20:42:40.663Z,3.12
2019-04-03T20:45:07.914Z,4.17
2019-04-03T20:47:36.409Z,6.08
2019-04-03T20:50:09.123Z,2.62
2019-04-03T20:52:37.605Z,1.80
2019-04-03T20:55:07.408Z,1.90
2019-04-03T20:57:35.965Z,1.70
2019-04-03T21:00:13.221Z,1.80
2019-04-03T21:02:42.206Z,2.08
2019-04-03T21:05:10.908Z,1.63
2019-04-03T21:07:39.402Z,1.70
2019-04-03T21:10:08.307Z,1.70
2019-04-03T21:12:36.873Z,1.60
2019-04-03T21:15:08.906Z,1.57
2019-04-03T21:17:37.466Z,1.70
2019-04-03T21:20:06.467Z,1.62
2019-04-03T21:22:34.963Z,1.67
2019-04-03T21:25:05.496Z,1.60
2019-04-03T21:27:34.474Z,2.55
2019-04-03T21:30:03.079Z,1.85
2019-04-03T21:32:31.531Z,2.00
2019-04-03T21:35:03.089Z,6.70
2019-04-03T21:37:30.122Z,3.45
2019-04-03T21:40:01.886Z,1.60
2019-04-03T21:42:28.721Z,1.60
2019-04-03T21:44:57.219Z,1.70
2019-04-03T21:47:25.676Z,2.53
2019-04-03T21:49:54.190Z,1.60
2019-04-03T21:52:22.852Z,1.57
2019-04-03T21:54:51.777Z,1.40
2019-04-03T21:57:20.264Z,2.12
2019-04-03T21:59:48.763Z,2.30
2019-04-03T22:02:17.247Z,2.50
2019-04-03T22:04:45.844Z,2.30
2019-04-03T22:07:14.302Z,1.87
2019-04-03T22:09:42.863Z,1.60
2019-04-03T22:12:11.390Z,1.57
2019-04-03T22:14:40.984Z,2.00
2019-04-03T22:17:10.053Z,1.63
2019-04-03T22:19:38.546Z,1.60
2019-04-03T22:22:07.008Z,1.85
2019-04-03T22:24:37.428Z,1.72
2019-04-03T22:27:05.613Z,1.27
2019-04-03T22:29:34.098Z,1.30
2019-04-03T22:32:02.555Z,2.07
2019-04-03T22:34:31.061Z,1.80
2019-04-03T22:36:59.513Z,2.60
2019-04-03T22:39:28.034Z,1.50
2019-04-03T22:41:56.457Z,1.70
2019-04-03T22:44:24.950Z,1.55
2019-04-03T22:46:54.026Z,2.15
2019-04-03T22:49:23.104Z,1.90
2019-04-03T22:51:51.634Z,1.97
2019-04-03T22:54:20.194Z,1.55
2019-04-03T22:56:48.654Z,1.33
2019-04-03T22:59:17.145Z,1.30
2019-04-03T23:01:45.605Z,1.30
2019-04-03T23:04:14.094Z,2.20
2019-04-03T23:06:42.574Z,2.70
2019-04-03T23:09:11.091Z,1.57
2019-04-03T23:11:39.522Z,1.57
2019-04-03T23:14:08.075Z,1.32
2019-04-03T23:16:36.539Z,1.43
2019-04-03T23:19:05.090Z,1.30
2019-04-03T23:21:33.483Z,2.05
2019-04-03T23:24:01.978Z,2.65
2019-04-03T23:26:32.234Z,1.87
2019-04-03T23:29:00.540Z,1.62
2019-04-03T23:31:29.022Z,1.50
2019-04-03T23:33:57.493Z,1.60
2019-04-03T23:36:25.998Z,1.53
2019-04-03T23:38:56.416Z,1.30
2019-04-03T23:41:24.576Z,2.03
2019-04-03T23:43:53.109Z,1.50
2019-04-03T23:46:21.606Z,2.25
2019-04-03T23:48:50.056Z,1.30
2019-04-03T23:51:23.468Z,1.07
2019-04-03T23:53:48.649Z,1.00
2019-04-03T23:56:17.146Z,2.60
2019-04-03T23:58:45.605Z,1.10
